Time;durP1;ratioP1;P1;durP2;ratioP2;P2;SDS_P1;SDS_P2;PMS_P1;PMS_P2;Temp;Humidity;BMP_temperature;BMP_pressure;BME280_temperature;BME280_humidity;BME280_pressure;Samples;Min_cycle;Max_cycle;Signal;HPM_P1;HPM_P2
2023/05/29 00:00:59;;;;;;;36.28;5.88;;;;;;;;;;6146412;23;20113;-59
2023/05/29 00:03:27;;;;;;;31.75;5.55;;;;;;;;;;6145553;23;20096;-59
2023/05/29 00:06:02;;;;;;;31.10;5.60;;;;;;;;;;6143644;23;20441;-59
2023/05/29 00:08:30;;;;;;;28.80;6.00;;;;;;;;;;6147811;23;20417;-58
2023/05/29 00:10:57;;;;;;;35.13;6.32;;;;;;;;;;6145574;23;20355;-59
2023/05/29 00:13:31;;;;;;;42.13;5.95;;;;;;;;;;6148856;23;20107;-56
2023/05/29 00:16:00;;;;;;;31.80;5.00;;;;;;;;;;6145144;23;20422;-56
2023/05/29 00:18:34;;;;;;;32.42;5.60;;;;;;;;;;6145957;23;20026;-57
2023/05/29 00:21:02;;;;;;;36.20;5.65;;;;;;;;;;6143600;23;20517;-55
2023/05/29 00:23:44;;;;;;;45.95;7.20;;;;;;;;;;6144216;23;20096;-55
2023/05/29 00:26:25;;;;;;;29.80;6.18;;;;;;;;;;6143138;23;20476;-50
2023/05/29 00:28:59;;;;;;;28.02;5.40;;;;;;;;;;6143013;23;20026;-48
2023/05/29 00:31:27;;;;;;;42.13;6.05;;;;;;;;;;6141285;23;20025;-51
2023/05/29 00:33:55;;;;;;;36.50;6.20;;;;;;;;;;6142194;23;20444;-48
2023/05/29 00:36:36;;;;;;;32.92;5.13;;;;;;;;;;6141869;23;20029;-50
2023/05/29 00:39:03;;;;;;;25.10;4.70;;;;;;;;;;6144914;23;20544;-48
2023/05/29 00:41:37;;;;;;;30.05;4.97;;;;;;;;;;6146366;23;20029;-67
2023/05/29 00:44:05;;;;;;;31.35;5.43;;;;;;;;;;6144748;23;20025;-66
2023/05/29 00:46:32;;;;;;;32.78;5.75;;;;;;;;;;6144583;23;20613;-66
2023/05/29 00:49:07;;;;;;;32.00;5.82;;;;;;;;;;6145923;23;20022;-66
2023/05/29 00:51:34;;;;;;;32.15;4.93;;;;;;;;;;6145014;23;20085;-53
2023/05/29 00:54:01;;;;;;;29.08;5.05;;;;;;;;;;6145754;23;20028;-51
2023/05/29 00:56:36;;;;;;;29.70;5.93;;;;;;;;;;6144171;23;20021;-59
2023/05/29 00:59:03;;;;;;;23.85;5.32;;;;;;;;;;6144979;23;20026;-58
2023/05/29 01:01:38;;;;;;;24.50;5.03;;;;;;;;;;6133178;23;20524;-59
2023/05/29 01:04:06;;;;;;;;;;;;;;;;;;6145530;23;20482;-58
2023/05/29 01:06:33;;;;;;;34.50;5.97;;;;;;;;;;6144785;23;20398;-59
2023/05/29 01:09:07;;;;;;;42.53;5.97;;;;;;;;;;6144293;23;20265;-60
2023/05/29 01:11:54;;;;;;;26.38;6.07;;;;;;;;;;6147015;23;20022;-47
2023/05/29 01:14:28;;;;;;;32.85;5.88;;;;;;;;;;6142216;23;20485;-46
2023/05/29 01:17:11;;;;;;;35.33;5.60;;;;;;;;;;6143555;23;20084;-49
2023/05/29 01:19:49;;;;;;;36.88;6.20;;;;;;;;;;6146299;23;20076;-66
2023/05/29 01:22:32;;;;;;;43.88;6.25;;;;;;;;;;6144490;23;20029;-45
2023/05/29 01:25:20;;;;;;;19.48;4.93;;;;;;;;;;6142221;23;20025;-48
2023/05/29 01:27:48;;;;;;;39.72;6.28;;;;;;;;;;6145471;23;20022;-50
2023/05/29 01:30:22;;;;;;;27.23;5.20;;;;;;;;;;6146030;23;20084;-49
2023/05/29 01:32:50;;;;;;;34.63;5.30;;;;;;;;;;6144806;23;20021;-51
2023/05/29 01:35:17;;;;;;;37.58;5.53;;;;;;;;;;6143461;23;20022;-52
2023/05/29 01:37:51;;;;;;;33.85;6.22;;;;;;;;;;6142446;23;20544;-48
2023/05/29 01:40:21;;;;;;;34.58;5.70;;;;;;;;;;6144237;23;20029;-65
2023/05/29 01:42:55;;;;;;;35.78;5.10;;;;;;;;;;6143562;23;20025;-65
2023/05/29 01:45:28;;;;;;;26.27;5.82;;;;;;;;;;6144816;23;20035;-65
2023/05/29 01:48:02;;;;;;;32.95;4.82;;;;;;;;;;6143471;23;20053;-65
2023/05/29 01:50:37;;;;;;;24.58;4.85;;;;;;;;;;6143213;23;20022;-50
2023/05/29 01:53:04;;;;;;;28.58;4.53;;;;;;;;;;6144542;23;20033;-48
2023/05/29 01:55:38;;;;;;;25.92;4.45;;;;;;;;;;6146076;23;20080;-51
2023/05/29 01:58:12;;;;;;;36.40;5.75;;;;;;;;;;6146074;23;20253;-48
2023/05/29 02:00:46;;;;;;;30.60;5.07;;;;;;;;;;6146179;23;20025;-50
2023/05/29 02:03:14;;;;;;;24.25;4.47;;;;;;;;;;6145289;23;20029;-48
2023/05/29 02:05:41;;;;;;;19.48;4.70;;;;;;;;;;6144488;23;20511;-52
2023/05/29 02:08:15;;;;;;;25.05;5.10;;;;;;;;;;6145920;23;20087;-56
2023/05/29 02:10:42;;;;;;;21.60;5.15;;;;;;;;;;6145761;23;20533;-52
2023/05/29 02:13:17;;;;;;;20.35;3.85;;;;;;;;;;6146731;23;20030;-53
2023/05/29 02:15:44;;;;;;;;;;;;;;;;;;6148788;23;20318;-50
2023/05/29 02:18:14;;;;;;;21.08;4.18;;;;;;;;;;6141512;23;19940;-65
2023/05/29 02:20:49;;;;;;;17.05;3.90;;;;;;;;;;6143732;23;20106;-59
2023/05/29 02:23:16;;;;;;;21.90;4.47;;;;;;;;;;6144455;23;20073;-58
2023/05/29 02:25:43;;;;;;;23.15;4.95;;;;;;;;;;6143825;23;20033;-58
2023/05/29 02:28:17;;;;;;;26.27;5.00;;;;;;;;;;6145367;23;20025;-58
2023/05/29 02:30:44;;;;;;;21.50;4.60;;;;;;;;;;6142501;23;20123;-58
2023/05/29 02:33:18;;;;;;;21.08;4.22;;;;;;;;;;6146529;23;20028;-55
2023/05/29 02:35:52;;;;;;;17.00;4.20;;;;;;;;;;6144180;23;20030;-53
2023/05/29 02:38:26;;;;;;;20.65;4.38;;;;;;;;;;6147351;23;20030;-53
2023/05/29 02:40:54;;;;;;;17.33;4.18;;;;;;;;;;6146555;23;20033;-56
2023/05/29 02:43:21;;;;;;;;;;;;;;;;;;6146272;23;20026;-53
2023/05/29 02:45:55;;;;;;;17.17;4.00;;;;;;;;;;6147338;23;20273;-65
2023/05/29 02:48:23;;;;;;;16.13;4.20;;;;;;;;;;6144398;23;20485;-61
2023/05/29 02:50:56;;;;;;;16.85;4.25;;;;;;;;;;6145119;23;20104;-64
2023/05/29 02:53:24;;;;;;;26.15;4.80;;;;;;;;;;6147439;23;20030;-64
2023/05/29 02:55:52;;;;;;;25.35;4.10;;;;;;;;;;6146878;23;20076;-64
2023/05/29 02:58:27;;;;;;;10.85;3.75;;;;;;;;;;6144975;23;20492;-63
2023/05/29 03:00:54;;;;;;;15.30;3.92;;;;;;;;;;6144656;23;20038;-63
2023/05/29 03:03:28;;;;;;;15.30;4.10;;;;;;;;;;6147116;23;20021;-46
2023/05/29 03:05:56;;;;;;;16.90;4.35;;;;;;;;;;6145443;23;20095;-50
2023/05/29 03:08:23;;;;;;;14.18;3.40;;;;;;;;;;6146016;23;20025;-50
2023/05/29 03:10:58;;;;;;;20.35;3.90;;;;;;;;;;6147009;23;20037;-49
2023/05/29 03:13:25;;;;;;;12.60;4.00;;;;;;;;;;6144224;23;20021;-47
2023/05/29 03:15:56;;;;;;;13.82;3.53;;;;;;;;;;6146134;23;20021;-53
2023/05/29 03:18:30;;;;;;;;;;;;;;;;;;6146736;23;20459;-49
2023/05/29 03:20:58;;;;;;;14.90;3.33;;;;;;;;;;6146082;23;19917;-53
2023/05/29 03:23:31;;;;;;;19.75;4.20;;;;;;;;;;6146124;23;20025;-51
2023/05/29 03:25:59;;;;;;;18.90;3.40;;;;;;;;;;6147463;23;20588;-48
2023/05/29 03:28:26;;;;;;;13.48;3.28;;;;;;;;;;6145576;23;20422;-51
2023/05/29 03:30:59;;;;;;;10.63;3.08;;;;;;;;;;6146229;23;20025;-51
2023/05/29 03:33:27;;;;;;;14.68;3.28;;;;;;;;;;6146211;23;20025;-55
2023/05/29 03:36:07;;;;;;;8.13;3.05;;;;;;;;;;6144362;23;20453;-56
2023/05/29 03:38:34;;;;;;;11.98;3.33;;;;;;;;;;6144905;23;20041;-49
2023/05/29 03:41:08;;;;;;;14.68;3.60;;;;;;;;;;6142288;23;20393;-55
2023/05/29 03:43:36;;;;;;;10.13;2.95;;;;;;;;;;6146471;23;20521;-49
2023/05/29 03:46:03;;;;;;;9.52;2.72;;;;;;;;;;6143337;23;20040;-59
2023/05/29 03:48:36;;;;;;;14.15;3.55;;;;;;;;;;6147133;23;20488;-58
2023/05/29 03:51:04;;;;;;;13.57;3.47;;;;;;;;;;6144615;23;20056;-57
2023/05/29 03:53:38;;;;;;;8.43;2.60;;;;;;;;;;6146599;23;20413;-57
2023/05/29 03:56:06;;;;;;;8.95;2.83;;;;;;;;;;6142857;23;20383;-58
2023/05/29 03:58:33;;;;;;;13.20;3.38;;;;;;;;;;6146107;23;20433;-58
2023/05/29 04:01:09;;;;;;;11.25;2.95;;;;;;;;;;6145963;23;20433;-50
2023/05/29 04:03:36;;;;;;;10.13;3.28;;;;;;;;;;6144009;23;20022;-50
2023/05/29 04:06:10;;;;;;;7.90;2.80;;;;;;;;;;6140012;23;20025;-48
2023/05/29 04:08:38;;;;;;;6.15;2.45;;;;;;;;;;6143771;23;20116;-51
2023/05/29 04:11:05;;;;;;;10.38;2.92;;;;;;;;;;6145089;23;20029;-48
2023/05/29 04:13:39;;;;;;;4.82;2.50;;;;;;;;;;6144775;23;20025;-56
2023/05/29 04:16:06;;;;;;;6.65;2.78;;;;;;;;;;6142806;23;20080;-48
2023/05/29 04:18:33;;;;;;;5.80;2.13;;;;;;;;;;6143186;23;20838;-48
2023/05/29 04:21:07;;;;;;;8.48;2.97;;;;;;;;;;6143807;23;20017;-48
2023/05/29 04:23:35;;;;;;;5.07;2.33;;;;;;;;;;6138949;23;20504;-50
2023/05/29 04:26:08;;;;;;;7.03;2.33;;;;;;;;;;6144767;23;20375;-51
2023/05/29 04:28:37;;;;;;;9.80;2.58;;;;;;;;;;6142006;23;20517;-50
2023/05/29 04:31:05;;;;;;;7.25;2.30;;;;;;;;;;6144601;23;20030;-55
2023/05/29 04:33:38;;;;;;;7.30;2.55;;;;;;;;;;6142917;23;20029;-50
2023/05/29 04:36:13;;;;;;;4.72;2.28;;;;;;;;;;6144737;23;20088;-51
2023/05/29 04:38:47;;;;;;;5.43;2.13;;;;;;;;;;6144475;23;20084;-52
2023/05/29 04:41:14;;;;;;;7.18;2.40;;;;;;;;;;6144335;23;20029;-50
2023/05/29 04:43:49;;;;;;;8.20;2.08;;;;;;;;;;6147542;23;20025;-52
2023/05/29 04:46:16;;;;;;;8.80;2.42;;;;;;;;;;6143203;23;20541;-54
2023/05/29 04:48:44;;;;;;;6.22;2.33;;;;;;;;;;6144863;23;20025;-55
2023/05/29 04:51:19;;;;;;;5.57;2.40;;;;;;;;;;6145467;23;20493;-54
2023/05/29 04:53:47;;;;;;;6.63;2.53;;;;;;;;;;6144264;23;20052;-55
2023/05/29 04:56:15;;;;;;;5.97;2.15;;;;;;;;;;6128187;23;20080;-53
2023/05/29 04:58:48;;;;;;;8.60;2.90;;;;;;;;;;6142994;23;20087;-55
2023/05/29 05:01:17;;;;;;;6.13;2.30;;;;;;;;;;6144723;23;20488;-48
2023/05/29 05:03:52;;;;;;;6.75;2.60;;;;;;;;;;6144828;23;20084;-50
2023/05/29 05:06:19;;;;;;;10.88;2.47;;;;;;;;;;6144734;23;20076;-50
2023/05/29 05:08:46;;;;;;;5.05;2.10;;;;;;;;;;6145616;23;20076;-47
2023/05/29 05:11:21;;;;;;;8.15;2.55;;;;;;;;;;6145054;23;20096;-46
2023/05/29 05:13:48;;;;;;;6.15;2.28;;;;;;;;;;6144794;23;20494;-51
2023/05/29 05:16:23;;;;;;;4.95;1.98;;;;;;;;;;6144820;23;20029;-50
2023/05/29 05:18:50;;;;;;;10.50;2.50;;;;;;;;;;6145857;23;20063;-48
2023/05/29 05:21:17;;;;;;;8.82;1.88;;;;;;;;;;6145954;23;20409;-47
2023/05/29 05:23:51;;;;;;;7.53;2.17;;;;;;;;;;6144973;23;20033;-47
2023/05/29 05:26:26;;;;;;;5.68;2.58;;;;;;;;;;6144504;23;20494;-57
2023/05/29 05:29:01;;;;;;;6.22;2.20;;;;;;;;;;6142335;23;20026;-48
2023/05/29 05:31:34;;;;;;;5.88;2.03;;;;;;;;;;6145835;23;20029;-51
2023/05/29 05:34:08;;;;;;;9.10;1.95;;;;;;;;;;6144339;23;20018;-52
2023/05/29 05:36:49;;;;;;;4.70;1.90;;;;;;;;;;6145996;23;20552;-50
2023/05/29 05:39:16;;;;;;;7.75;1.90;;;;;;;;;;6144723;23;20080;-50
2023/05/29 05:41:50;;;;;;;4.65;1.52;;;;;;;;;;6144631;23;20230;-53
2023/05/29 05:44:25;;;;;;;6.47;1.88;;;;;;;;;;6145151;23;20030;-57
2023/05/29 05:46:52;;;;;;;6.72;1.90;;;;;;;;;;6146209;23;20080;-58
2023/05/29 05:49:20;;;;;;;5.07;2.03;;;;;;;;;;6144660;23;20112;-57
2023/05/29 05:51:53;;;;;;;4.05;1.67;;;;;;;;;;6145769;23;20092;-58
2023/05/29 05:54:21;;;;;;;4.50;1.77;;;;;;;;;;6144894;23;20025;-48
2023/05/29 05:56:54;;;;;;;4.47;1.65;;;;;;;;;;6140468;23;20033;-56
2023/05/29 05:59:22;;;;;;;7.00;1.40;;;;;;;;;;6144473;23;20096;-46
2023/05/29 06:01:49;;;;;;;4.50;1.63;;;;;;;;;;6143998;23;20026;-50
2023/05/29 06:04:24;;;;;;;6.22;1.85;;;;;;;;;;6142975;23;20025;-47
2023/05/29 06:06:51;;;;;;;5.65;1.90;;;;;;;;;;6145404;23;20028;-49
2023/05/29 06:09:19;;;;;;;4.72;1.65;;;;;;;;;;6143199;23;20413;-49
2023/05/29 06:11:53;;;;;;;5.70;1.50;;;;;;;;;;6142446;23;20018;-46
2023/05/29 06:14:26;;;;;;;6.25;1.83;;;;;;;;;;6145824;23;20425;-49
2023/05/29 06:16:54;;;;;;;6.03;1.60;;;;;;;;;;6142983;23;20025;-47
2023/05/29 06:19:21;;;;;;;3.80;1.63;;;;;;;;;;6143944;23;20029;-49
2023/05/29 06:21:55;;;;;;;5.93;1.85;;;;;;;;;;6141950;23;20021;-52
2023/05/29 06:24:23;;;;;;;8.15;1.73;;;;;;;;;;6141021;23;20029;-62
2023/05/29 06:26:50;;;;;;;3.78;1.60;;;;;;;;;;6145834;23;20017;-48
2023/05/29 06:29:23;;;;;;;5.75;1.67;;;;;;;;;;6144219;23;20029;-52
2023/05/29 06:31:51;;;;;;;5.10;2.05;;;;;;;;;;6145176;23;20516;-52
2023/05/29 06:34:37;;;;;;;2.95;1.50;;;;;;;;;;6143771;23;20088;-54
2023/05/29 06:37:11;;;;;;;5.15;1.70;;;;;;;;;;6144355;23;20419;-52
2023/05/29 06:39:46;;;;;;;3.58;1.50;;;;;;;;;;6145796;23;20461;-50
2023/05/29 06:42:13;;;;;;;;;;;;;;;;;;6145319;23;20029;-57
2023/05/29 06:44:40;;;;;;;4.63;1.52;;;;;;;;;;6145165;23;20294;-57
2023/05/29 06:47:15;;;;;;;4.93;1.67;;;;;;;;;;6144023;23;20556;-58
2023/05/29 06:49:42;;;;;;;4.85;1.50;;;;;;;;;;6145398;23;20104;-58
2023/05/29 06:52:09;;;;;;;5.30;1.60;;;;;;;;;;6144501;23;20432;-64
2023/05/29 06:54:44;;;;;;;7.07;1.60;;;;;;;;;;6144198;23;20240;-50
2023/05/29 06:57:11;;;;;;;8.18;1.45;;;;;;;;;;6145001;23;20048;-53
2023/05/29 06:59:38;;;;;;;4.32;1.75;;;;;;;;;;6146705;23;20030;-49
2023/05/29 07:02:12;;;;;;;4.10;1.67;;;;;;;;;;6145095;23;20029;-53
2023/05/29 07:04:40;;;;;;;8.43;1.65;;;;;;;;;;6147226;23;20381;-50
2023/05/29 07:07:14;;;;;;;4.25;1.52;;;;;;;;;;6145934;23;20497;-55
2023/05/29 07:09:41;;;;;;;4.45;1.30;;;;;;;;;;6147880;23;20021;-58
2023/05/29 07:12:08;;;;;;;1.73;1.08;;;;;;;;;;6146747;23;20030;-58
2023/05/29 07:14:41;;;;;;;4.32;1.70;;;;;;;;;;6146418;23;20485;-56
2023/05/29 07:17:09;;;;;;;4.03;1.70;;;;;;;;;;6145961;23;20421;-57
2023/05/29 07:19:43;;;;;;;4.50;1.70;;;;;;;;;;6147634;23;20032;-56
2023/05/29 07:22:10;;;;;;;3.63;1.58;;;;;;;;;;6145748;23;20024;-57
2023/05/29 07:24:37;;;;;;;4.57;1.52;;;;;;;;;;6147562;23;20025;-47
2023/05/29 07:27:11;;;;;;;4.25;1.77;;;;;;;;;;6145569;23;20080;-47
2023/05/29 07:29:39;;;;;;;10.02;1.75;;;;;;;;;;6147137;23;20158;-48
2023/05/29 07:32:13;;;;;;;3.78;1.48;;;;;;;;;;6145428;23;20025;-49
2023/05/29 07:34:55;;;;;;;4.60;1.70;;;;;;;;;;6147129;23;20377;-46
2023/05/29 07:37:30;;;;;;;4.68;1.75;;;;;;;;;;6145935;23;20030;-50
2023/05/29 07:40:07;;;;;;;4.65;1.40;;;;;;;;;;6147394;23;20032;-57
2023/05/29 07:42:34;;;;;;;4.80;1.35;;;;;;;;;;6145818;23;20018;-57
2023/05/29 07:45:01;;;;;;;4.05;1.45;;;;;;;;;;6146690;23;20026;-57
2023/05/29 07:47:35;;;;;;;5.38;1.80;;;;;;;;;;6145379;23;20080;-57
2023/05/29 07:50:06;;;;;;;3.50;1.38;;;;;;;;;;6147126;23;20663;-51
2023/05/29 07:52:40;;;;;;;4.53;1.33;;;;;;;;;;6135303;23;20359;-53
2023/05/29 07:55:07;;;;;;;5.75;1.58;;;;;;;;;;6145794;23;20445;-51
2023/05/29 07:57:35;;;;;;;4.30;1.20;;;;;;;;;;6145531;23;20024;-53
2023/05/29 08:00:12;;;;;;;4.45;1.60;;;;;;;;;;6145886;23;20072;-54
2023/05/29 08:02:39;;;;;;;5.00;1.70;;;;;;;;;;6146350;23;20477;-53
2023/05/29 08:05:13;;;;;;;3.40;1.33;;;;;;;;;;6146683;23;20028;-53
2023/05/29 08:07:41;;;;;;;3.15;1.75;;;;;;;;;;6147119;23;20029;-58
2023/05/29 08:10:15;;;;;;;6.10;1.50;;;;;;;;;;6146458;23;20025;-55
2023/05/29 08:12:42;;;;;;;5.75;1.98;;;;;;;;;;6147262;23;20084;-56
2023/05/29 08:15:09;;;;;;;8.55;1.63;;;;;;;;;;6145558;23;20439;-56
2023/05/29 08:17:44;;;;;;;3.13;1.58;;;;;;;;;;6146855;23;20131;-53
2023/05/29 08:20:11;;;;;;;3.30;1.40;;;;;;;;;;6146381;23;20025;-51
2023/05/29 08:22:38;;;;;;;3.60;1.45;;;;;;;;;;6146287;23;20032;-53
2023/05/29 08:25:13;;;;;;;6.63;2.00;;;;;;;;;;6145830;23;20057;-51
2023/05/29 08:27:40;;;;;;;4.45;1.40;;;;;;;;;;6146478;23;20025;-53
2023/05/29 08:30:07;;;;;;;4.22;2.00;;;;;;;;;;6147020;23;20031;-53
2023/05/29 08:32:41;;;;;;;4.18;1.52;;;;;;;;;;6145113;23;20029;-50
2023/05/29 08:35:16;;;;;;;3.95;1.30;;;;;;;;;;6146233;23;20584;-53
2023/05/29 08:37:57;;;;;;;5.90;1.63;;;;;;;;;;6143546;23;20022;-51
2023/05/29 08:40:25;;;;;;;6.78;2.08;;;;;;;;;;6143040;23;20021;-51
2023/05/29 08:43:15;;;;;;;3.88;1.45;;;;;;;;;;6143006;23;20076;-52
2023/05/29 08:45:43;;;;;;;4.68;1.88;;;;;;;;;;6146037;23;20033;-64
2023/05/29 08:48:19;;;;;;;2.45;1.27;;;;;;;;;;6144205;23;20523;-63
2023/05/29 08:50:54;;;;;;;4.93;1.77;;;;;;;;;;6145749;23;20084;-63
2023/05/29 08:53:22;;;;;;;5.43;1.75;;;;;;;;;;6146105;23;20441;-63
2023/05/29 08:55:58;;;;;;;5.05;1.75;;;;;;;;;;6144671;23;20025;-63
2023/05/29 08:58:25;;;;;;;5.75;1.95;;;;;;;;;;6147150;23;20093;-63
2023/05/29 09:00:52;;;;;;;7.47;1.80;;;;;;;;;;6144436;23;20482;-63
2023/05/29 09:03:27;;;;;;;4.68;1.58;;;;;;;;;;6145621;23;20021;-58
2023/05/29 09:05:59;;;;;;;4.90;1.33;;;;;;;;;;6144513;23;20434;-58
2023/05/29 09:08:32;;;;;;;;;;;;;;;;;;6144243;23;20076;-59
2023/05/29 09:11:00;;;;;;;4.90;1.85;;;;;;;;;;6144458;23;19917;-58
2023/05/29 09:13:28;;;;;;;4.75;1.40;;;;;;;;;;6145283;23;20053;-66
2023/05/29 09:16:06;;;;;;;7.32;2.45;;;;;;;;;;6144305;23;20076;-52
2023/05/29 09:18:33;;;;;;;10.07;1.50;;;;;;;;;;6145538;23;20021;-53
2023/05/29 09:21:11;;;;;;;4.93;1.92;;;;;;;;;;6144678;23;20067;-52
2023/05/29 09:23:38;;;;;;;4.07;1.50;;;;;;;;;;6143091;23;20424;-56
2023/05/29 09:26:05;;;;;;;7.82;1.50;;;;;;;;;;6144748;23;20065;-56
2023/05/29 09:28:39;;;;;;;7.60;1.85;;;;;;;;;;6146142;23;20037;-55
2023/05/29 09:31:17;;;;;;;3.75;1.67;;;;;;;;;;6144955;23;20092;-56
2023/05/29 09:33:51;;;;;;;6.55;1.55;;;;;;;;;;6145453;23;20293;-56
2023/05/29 09:36:30;;;;;;;4.93;1.73;;;;;;;;;;6144350;23;20033;-57
2023/05/29 09:39:09;;;;;;;4.85;2.08;;;;;;;;;;6144439;23;20029;-55
2023/05/29 09:41:44;;;;;;;4.57;1.70;;;;;;;;;;6145609;23;20040;-56
2023/05/29 09:44:19;;;;;;;4.60;1.80;;;;;;;;;;6145276;23;20586;-54
2023/05/29 09:46:49;;;;;;;4.38;1.38;;;;;;;;;;6144051;23;20093;-55
2023/05/29 09:49:16;;;;;;;4.68;1.75;;;;;;;;;;6145037;23;20521;-54
2023/05/29 09:51:53;;;;;;;6.68;1.90;;;;;;;;;;6145068;23;20029;-57
2023/05/29 09:54:22;;;;;;;4.28;1.70;;;;;;;;;;6139147;23;20119;-57
2023/05/29 09:56:57;;;;;;;4.03;1.60;;;;;;;;;;6143465;23;20036;-56
2023/05/29 09:59:25;;;;;;;4.45;1.67;;;;;;;;;;6145235;23;20022;-57
2023/05/29 10:02:07;;;;;;;3.10;1.27;;;;;;;;;;6143731;23;20025;-65
2023/05/29 10:04:43;;;;;;;4.32;1.40;;;;;;;;;;6144040;23;20041;-65
2023/05/29 10:07:13;;;;;;;3.30;1.42;;;;;;;;;;6140871;23;20022;-65
2023/05/29 10:09:50;;;;;;;5.40;1.45;;;;;;;;;;6144678;23;20025;-65
2023/05/29 10:12:23;;;;;;;3.20;1.50;;;;;;;;;;6143128;23;20026;-58
2023/05/29 10:14:58;;;;;;;3.72;1.67;;;;;;;;;;6144448;23;20033;-58
2023/05/29 10:17:29;;;;;;;3.25;1.80;;;;;;;;;;6145432;23;20046;-58
2023/05/29 10:20:06;;;;;;;2.70;1.42;;;;;;;;;;6143806;23;20080;-57
2023/05/29 10:22:34;;;;;;;2.47;1.33;;;;;;;;;;6145096;23;20189;-58
2023/05/29 10:25:01;;;;;;;2.53;1.35;;;;;;;;;;6144689;23;20026;-58
2023/05/29 10:27:36;;;;;;;2.58;1.33;;;;;;;;;;6145954;23;20316;-56
2023/05/29 10:30:08;;;;;;;5.40;1.52;;;;;;;;;;6144761;23;20029;-51
2023/05/29 10:32:45;;;;;;;3.35;1.70;;;;;;;;;;6146932;23;20022;-52
2023/05/29 10:35:25;;;;;;;2.60;1.30;;;;;;;;;;6146288;23;20032;-49
2023/05/29 10:38:13;;;;;;;3.15;1.55;;;;;;;;;;6145951;23;20026;-50
2023/05/29 10:40:40;;;;;;;3.85;1.45;;;;;;;;;;6148524;23;20021;-64
2023/05/29 10:43:34;;;;;;;3.78;1.40;;;;;;;;;;6146322;23;20126;-64
2023/05/29 10:46:02;;;;;;;2.72;1.38;;;;;;;;;;6146149;23;20060;-64
2023/05/29 10:48:40;;;;;;;4.40;1.58;;;;;;;;;;6147743;23;20025;-64
2023/05/29 10:51:08;;;;;;;6.10;1.60;;;;;;;;;;6142613;23;20541;-64
2023/05/29 10:53:41;;;;;;;4.22;1.40;;;;;;;;;;6145439;23;20153;-64
2023/05/29 10:56:10;;;;;;;5.50;1.60;;;;;;;;;;6145855;23;20025;-64
2023/05/29 10:58:51;;;;;;;2.92;1.65;;;;;;;;;;6144179;23;20359;-56
2023/05/29 11:01:21;;;;;;;1.80;1.30;;;;;;;;;;6144131;23;20064;-52
2023/05/29 11:04:15;;;;;;;3.45;1.60;;;;;;;;;;6145576;23;20089;-56
2023/05/29 11:06:42;;;;;;;1.63;1.20;;;;;;;;;;6125447;23;20366;-56
2023/05/29 11:09:30;;;;;;;4.72;1.42;;;;;;;;;;6145934;23;20088;-56
2023/05/29 11:12:25;;;;;;;2.65;1.38;;;;;;;;;;6144358;23;20421;-64
2023/05/29 11:15:13;;;;;;;4.40;1.63;;;;;;;;;;6146544;23;20107;-65
2023/05/29 11:17:40;;;;;;;2.08;1.00;;;;;;;;;;6147104;23;20026;-63
2023/05/29 11:20:28;;;;;;;2.90;1.27;;;;;;;;;;6146942;23;20018;-64
2023/05/29 11:23:07;;;;;;;2.67;1.20;;;;;;;;;;6146097;23;20030;-63
2023/05/29 11:25:41;;;;;;;1.50;1.10;;;;;;;;;;6146377;23;20030;-50
2023/05/29 11:28:15;;;;;;;3.28;1.42;;;;;;;;;;6145807;23;20025;-50
2023/05/29 11:30:49;;;;;;;5.40;1.70;;;;;;;;;;6147005;23;20025;-50
2023/05/29 11:33:27;;;;;;;4.30;1.02;;;;;;;;;;6144793;23;20548;-53
2023/05/29 11:36:07;;;;;;;3.38;1.42;;;;;;;;;;6144837;23;20036;-64
2023/05/29 11:38:42;;;;;;;2.65;1.50;;;;;;;;;;6145623;23;20025;-54
2023/05/29 11:41:09;;;;;;;;;;;;;;;;;;6148277;23;20485;-57
2023/05/29 11:43:36;;;;;;;3.33;1.40;;;;;;;;;;6144463;23;19941;-57
2023/05/29 11:46:17;;;;;;;2.40;1.27;;;;;;;;;;6145544;23;20437;-57
2023/05/29 11:48:45;;;;;;;4.80;1.45;;;;;;;;;;6146400;23;20025;-57
2023/05/29 11:51:20;;;;;;;3.20;1.25;;;;;;;;;;6147152;23;20061;-57
2023/05/29 11:53:47;;;;;;;2.58;1.58;;;;;;;;;;6146138;23;20032;-57
2023/05/29 11:56:20;;;;;;;2.47;1.33;;;;;;;;;;6147313;23;20560;-55
2023/05/29 11:58:48;;;;;;;3.28;1.30;;;;;;;;;;6145828;23;20021;-54
2023/05/29 12:01:23;;;;;;;1.42;1.23;;;;;;;;;;6145493;23;20025;-54
2023/05/29 12:03:50;;;;;;;4.18;1.25;;;;;;;;;;6143932;23;20025;-53
2023/05/29 12:06:32;;;;;;;4.53;1.30;;;;;;;;;;6146422;23;20029;-63
2023/05/29 12:09:00;;;;;;;2.22;1.35;;;;;;;;;;6144884;23;20556;-53
2023/05/29 12:11:35;;;;;;;3.47;1.25;;;;;;;;;;6142136;23;20439;-54
2023/05/29 12:14:02;;;;;;;3.90;1.48;;;;;;;;;;6144402;23;20025;-52
2023/05/29 12:16:31;;;;;;;2.00;1.20;;;;;;;;;;6144999;23;20029;-52
2023/05/29 12:19:05;;;;;;;2.80;1.10;;;;;;;;;;6145628;23;20029;-52
2023/05/29 12:21:32;;;;;;;1.45;1.05;;;;;;;;;;6142001;23;20025;-51
2023/05/29 12:23:59;;;;;;;6.03;1.70;;;;;;;;;;6146262;23;20021;-55
2023/05/29 12:26:47;;;;;;;1.95;1.27;;;;;;;;;;6144345;23;20033;-57
2023/05/29 12:29:15;;;;;;;2.00;1.20;;;;;;;;;;6145478;23;20029;-58
2023/05/29 12:31:57;;;;;;;1.73;1.15;;;;;;;;;;6146278;23;20029;-56
2023/05/29 12:34:25;;;;;;;2.47;0.95;;;;;;;;;;6145857;23;20018;-63
2023/05/29 12:37:13;;;;;;;1.52;1.00;;;;;;;;;;6143472;23;20567;-49
2023/05/29 12:40:14;;;;;;;3.40;1.30;;;;;;;;;;6145490;23;20021;-51
2023/05/29 12:42:58;;;;;;;1.30;1.20;;;;;;;;;;6144783;23;20032;-54
2023/05/29 12:45:28;;;;;;;;;;;;;;;;;;6147680;23;20026;-49
2023/05/29 12:48:04;;;;;;;1.20;1.00;;;;;;;;;;6144201;23;19916;-48
2023/05/29 12:50:32;;;;;;;1.40;1.02;;;;;;;;;;6142597;23;20025;-52
2023/05/29 12:53:10;;;;;;;1.92;1.00;;;;;;;;;;6144985;23;20022;-56
2023/05/29 12:55:44;;;;;;;2.08;1.10;;;;;;;;;;6145445;23;20125;-57
2023/05/29 12:58:15;;;;;;;3.17;1.13;;;;;;;;;;6144859;23;20032;-57
2023/05/29 13:00:56;;;;;;;2.08;1.20;;;;;;;;;;6146479;23;20029;-57
2023/05/29 13:03:23;;;;;;;4.13;1.48;;;;;;;;;;6144110;23;20197;-55
2023/05/29 13:05:57;;;;;;;1.50;1.00;;;;;;;;;;6146078;23;20025;-50
2023/05/29 13:08:24;;;;;;;2.20;1.10;;;;;;;;;;6145633;23;20032;-50
2023/05/29 13:10:51;;;;;;;2.70;1.15;;;;;;;;;;6146194;23;20022;-47
2023/05/29 13:13:26;;;;;;;1.88;1.20;;;;;;;;;;6144457;23;20029;-50
2023/05/29 13:15:53;;;;;;;1.70;1.27;;;;;;;;;;6144595;23;20025;-47
2023/05/29 13:18:20;;;;;;;;;;;;;;;;;;6145095;23;20030;-52
2023/05/29 13:20:55;;;;;;;2.60;1.08;;;;;;;;;;6145823;23;19917;-57
2023/05/29 13:23:22;;;;;;;2.00;1.30;;;;;;;;;;6141019;23;20437;-57
2023/05/29 13:25:49;;;;;;;2.90;1.35;;;;;;;;;;6145014;23;20437;-57
2023/05/29 13:28:24;;;;;;;1.35;0.90;;;;;;;;;;6142482;23;20407;-55
2023/05/29 13:30:51;;;;;;;;;;;;;;;;;;6145667;23;20022;-62
2023/05/29 13:33:25;;;;;;;1.58;0.90;;;;;;;;;;6144859;23;19921;-59
2023/05/29 13:36:05;;;;;;;1.42;0.90;;;;;;;;;;6145011;23;20092;-59
2023/05/29 13:38:39;;;;;;;1.58;0.90;;;;;;;;;;6145964;23;20433;-59
2023/05/29 13:41:06;;;;;;;1.85;1.20;;;;;;;;;;6141251;23;20096;-58
2023/05/29 13:43:33;;;;;;;1.42;1.00;;;;;;;;;;6145606;23;20021;-59
2023/05/29 13:46:11;;;;;;;3.80;1.30;;;;;;;;;;6145094;23;20028;-59
2023/05/29 13:48:38;;;;;;;1.98;1.25;;;;;;;;;;6145361;23;20033;-58
2023/05/29 13:51:12;;;;;;;2.20;0.95;;;;;;;;;;6143573;23;20489;-59
2023/05/29 13:53:40;;;;;;;2.35;1.40;;;;;;;;;;6144101;23;20017;-59
2023/05/29 13:56:14;;;;;;;2.35;1.40;;;;;;;;;;6119117;23;20021;-59
2023/05/29 13:58:41;;;;;;;1.85;1.05;;;;;;;;;;6143757;23;20021;-56
2023/05/29 14:01:09;;;;;;;2.40;1.20;;;;;;;;;;6144014;23;20088;-63
2023/05/29 14:03:43;;;;;;;2.70;1.52;;;;;;;;;;6143324;23;20111;-55
2023/05/29 14:06:10;;;;;;;1.77;1.00;;;;;;;;;;6145791;23;20021;-54
2023/05/29 14:08:37;;;;;;;3.75;1.50;;;;;;;;;;6144922;23;20040;-51
2023/05/29 14:11:12;;;;;;;4.00;1.38;;;;;;;;;;6144160;23;20028;-55
2023/05/29 14:13:39;;;;;;;1.75;1.10;;;;;;;;;;6144247;23;20017;-55
2023/05/29 14:16:15;;;;;;;2.88;1.27;;;;;;;;;;6144081;23;20080;-52
2023/05/29 14:18:45;;;;;;;3.45;1.05;;;;;;;;;;6143702;23;20477;-58
2023/05/29 14:21:12;;;;;;;3.42;1.33;;;;;;;;;;6140378;23;20021;-59
2023/05/29 14:23:46;;;;;;;2.33;1.50;;;;;;;;;;6144423;23;20084;-58
2023/05/29 14:26:13;;;;;;;1.73;1.08;;;;;;;;;;6141054;23;20080;-59
2023/05/29 14:28:47;;;;;;;3.85;1.20;;;;;;;;;;6140577;23;20025;-49
2023/05/29 14:31:15;;;;;;;5.50;1.10;;;;;;;;;;6142151;23;20045;-55
2023/05/29 14:33:42;;;;;;;3.88;1.10;;;;;;;;;;6142905;23;20060;-56
2023/05/29 14:36:22;;;;;;;2.78;1.35;;;;;;;;;;6142114;23;20052;-53
2023/05/29 14:38:49;;;;;;;3.40;1.40;;;;;;;;;;6143808;23;20026;-51
2023/05/29 14:41:25;;;;;;;2.03;1.25;;;;;;;;;;6145276;23;20067;-56
2023/05/29 14:43:52;;;;;;;2.10;1.40;;;;;;;;;;6144958;23;20100;-54
2023/05/29 14:46:19;;;;;;;2.20;1.40;;;;;;;;;;6146893;23;20378;-64
2023/05/29 14:48:54;;;;;;;8.55;1.75;;;;;;;;;;6145155;23;20021;-65
2023/05/29 14:51:23;;;;;;;1.95;1.20;;;;;;;;;;6145277;23;20021;-64
2023/05/29 14:53:50;;;;;;;3.53;1.05;;;;;;;;;;6145246;23;20025;-64
2023/05/29 14:56:25;;;;;;;4.63;1.15;;;;;;;;;;6144937;23;20022;-55
2023/05/29 14:58:52;;;;;;;2.67;1.27;;;;;;;;;;6139619;23;20088;-50
2023/05/29 15:01:26;;;;;;;2.53;1.13;;;;;;;;;;6143367;23;20032;-51
2023/05/29 15:03:53;;;;;;;2.05;1.35;;;;;;;;;;6140877;23;20029;-48
2023/05/29 15:06:20;;;;;;;3.15;1.20;;;;;;;;;;6144556;23;20187;-52
2023/05/29 15:08:56;;;;;;;3.10;1.02;;;;;;;;;;6143201;23;20199;-48
2023/05/29 15:11:23;;;;;;;3.28;1.63;;;;;;;;;;6144102;23;20080;-47